sensor_id;sensor_type;location;lat;lon;timestamp;P1;durP1;ratioP1;P2;durP2;ratioP2
79759;SDS011;69248;42.138;24.742;2023-04-24T00:01:54;9.95;;;6.33;;
79759;SDS011;69248;42.138;24.742;2023-04-24T00:04:22;10.70;;;6.40;;
79759;SDS011;69248;42.138;24.742;2023-04-24T00:06:51;10.88;;;6.83;;
79759;SDS011;69248;42.138;24.742;2023-04-24T00:09:20;19.20;;;7.05;;
79759;SDS011;69248;42.138;24.742;2023-04-24T00:11:48;11.18;;;6.45;;
79759;SDS011;69248;42.138;24.742;2023-04-24T00:14:15;10.05;;;7.10;;
79759;SDS011;69248;42.138;24.742;2023-04-24T00:16:43;12.25;;;6.05;;
79759;SDS011;69248;42.138;24.742;2023-04-24T00:19:10;13.85;;;7.90;;
79759;SDS011;69248;42.138;24.742;2023-04-24T00:21:38;14.87;;;7.50;;
79759;SDS011;69248;42.138;24.742;2023-04-24T00:24:06;14.15;;;6.70;;
79759;SDS011;69248;42.138;24.742;2023-04-24T00:26:36;13.50;;;6.15;;
79759;SDS011;69248;42.138;24.742;2023-04-24T00:29:03;11.18;;;6.20;;
79759;SDS011;69248;42.138;24.742;2023-04-24T00:31:31;9.83;;;5.33;;
79759;SDS011;69248;42.138;24.742;2023-04-24T00:34:00;13.08;;;6.55;;
79759;SDS011;69248;42.138;24.742;2023-04-24T00:36:28;11.78;;;6.87;;
79759;SDS011;69248;42.138;24.742;2023-04-24T00:38:56;8.45;;;5.20;;
79759;SDS011;69248;42.138;24.742;2023-04-24T00:41:24;12.73;;;5.95;;
79759;SDS011;69248;42.138;24.742;2023-04-24T00:43:52;14.23;;;6.50;;
79759;SDS011;69248;42.138;24.742;2023-04-24T00:46:20;11.70;;;6.10;;
79759;SDS011;69248;42.138;24.742;2023-04-24T00:48:48;11.65;;;5.62;;
79759;SDS011;69248;42.138;24.742;2023-04-24T00:51:16;9.83;;;5.40;;
79759;SDS011;69248;42.138;24.742;2023-04-24T00:53:44;12.40;;;5.85;;
79759;SDS011;69248;42.138;24.742;2023-04-24T00:56:12;14.20;;;6.25;;
79759;SDS011;69248;42.138;24.742;2023-04-24T00:58:40;12.10;;;5.70;;
79759;SDS011;69248;42.138;24.742;2023-04-24T01:01:09;9.25;;;6.00;;
79759;SDS011;69248;42.138;24.742;2023-04-24T01:03:37;11.93;;;6.83;;
79759;SDS011;69248;42.138;24.742;2023-04-24T01:06:05;9.48;;;5.83;;
79759;SDS011;69248;42.138;24.742;2023-04-24T01:08:33;10.32;;;6.97;;
79759;SDS011;69248;42.138;24.742;2023-04-24T01:11:03;7.40;;;5.95;;
79759;SDS011;69248;42.138;24.742;2023-04-24T01:13:31;11.25;;;7.12;;
79759;SDS011;69248;42.138;24.742;2023-04-24T01:16:00;10.03;;;5.33;;
79759;SDS011;69248;42.138;24.742;2023-04-24T01:18:28;12.00;;;6.03;;
79759;SDS011;69248;42.138;24.742;2023-04-24T01:20:57;19.45;;;8.80;;
79759;SDS011;69248;42.138;24.742;2023-04-24T01:23:26;15.50;;;7.80;;
79759;SDS011;69248;42.138;24.742;2023-04-24T01:25:54;14.87;;;8.95;;
79759;SDS011;69248;42.138;24.742;2023-04-24T01:28:22;14.25;;;8.95;;
79759;SDS011;69248;42.138;24.742;2023-04-24T01:30:49;13.15;;;9.20;;
79759;SDS011;69248;42.138;24.742;2023-04-24T01:33:17;14.35;;;9.63;;
79759;SDS011;69248;42.138;24.742;2023-04-24T01:35:46;14.35;;;9.88;;
79759;SDS011;69248;42.138;24.742;2023-04-24T01:38:14;14.68;;;10.25;;
79759;SDS011;69248;42.138;24.742;2023-04-24T01:40:42;12.73;;;9.95;;
79759;SDS011;69248;42.138;24.742;2023-04-24T01:43:11;15.10;;;11.15;;
79759;SDS011;69248;42.138;24.742;2023-04-24T01:45:39;18.57;;;10.00;;
79759;SDS011;69248;42.138;24.742;2023-04-24T01:48:06;16.32;;;10.43;;
79759;SDS011;69248;42.138;24.742;2023-04-24T01:50:34;19.37;;;11.10;;
79759;SDS011;69248;42.138;24.742;2023-04-24T01:53:02;15.83;;;10.00;;
79759;SDS011;69248;42.138;24.742;2023-04-24T01:55:30;17.27;;;10.05;;
79759;SDS011;69248;42.138;24.742;2023-04-24T01:57:57;16.95;;;10.63;;
79759;SDS011;69248;42.138;24.742;2023-04-24T02:00:27;16.75;;;10.00;;
79759;SDS011;69248;42.138;24.742;2023-04-24T02:02:55;24.52;;;11.28;;
79759;SDS011;69248;42.138;24.742;2023-04-24T02:05:23;16.82;;;11.40;;
79759;SDS011;69248;42.138;24.742;2023-04-24T02:07:50;18.98;;;10.48;;
79759;SDS011;69248;42.138;24.742;2023-04-24T02:10:18;20.02;;;11.15;;
79759;SDS011;69248;42.138;24.742;2023-04-24T02:12:45;17.40;;;11.15;;
79759;SDS011;69248;42.138;24.742;2023-04-24T02:15:13;15.00;;;9.15;;
79759;SDS011;69248;42.138;24.742;2023-04-24T02:17:40;15.70;;;9.33;;
79759;SDS011;69248;42.138;24.742;2023-04-24T02:20:08;12.05;;;8.35;;
79759;SDS011;69248;42.138;24.742;2023-04-24T02:22:36;16.93;;;9.13;;
79759;SDS011;69248;42.138;24.742;2023-04-24T02:25:03;13.35;;;9.33;;
79759;SDS011;69248;42.138;24.742;2023-04-24T02:27:31;22.65;;;10.08;;
79759;SDS011;69248;42.138;24.742;2023-04-24T02:29:59;15.15;;;8.50;;
79759;SDS011;69248;42.138;24.742;2023-04-24T02:32:26;15.78;;;9.43;;
79759;SDS011;69248;42.138;24.742;2023-04-24T02:34:54;13.20;;;7.85;;
79759;SDS011;69248;42.138;24.742;2023-04-24T02:37:21;17.65;;;8.93;;
79759;SDS011;69248;42.138;24.742;2023-04-24T02:39:49;18.50;;;9.53;;
79759;SDS011;69248;42.138;24.742;2023-04-24T02:42:16;20.52;;;9.75;;
79759;SDS011;69248;42.138;24.742;2023-04-24T02:44:44;10.00;;;7.55;;
79759;SDS011;69248;42.138;24.742;2023-04-24T02:47:11;10.30;;;8.03;;
79759;SDS011;69248;42.138;24.742;2023-04-24T02:49:39;16.42;;;9.35;;
79759;SDS011;69248;42.138;24.742;2023-04-24T02:52:07;11.83;;;7.70;;
79759;SDS011;69248;42.138;24.742;2023-04-24T02:54:35;18.42;;;9.48;;
79759;SDS011;69248;42.138;24.742;2023-04-24T02:57:02;11.30;;;7.10;;
79759;SDS011;69248;42.138;24.742;2023-04-24T02:59:30;18.27;;;9.00;;
79759;SDS011;69248;42.138;24.742;2023-04-24T03:01:57;17.92;;;9.80;;
79759;SDS011;69248;42.138;24.742;2023-04-24T03:04:25;15.38;;;7.92;;
79759;SDS011;69248;42.138;24.742;2023-04-24T03:06:53;13.70;;;8.68;;
79759;SDS011;69248;42.138;24.742;2023-04-24T03:09:21;22.37;;;10.05;;
79759;SDS011;69248;42.138;24.742;2023-04-24T03:11:49;20.90;;;10.05;;
79759;SDS011;69248;42.138;24.742;2023-04-24T03:14:16;15.23;;;9.00;;
79759;SDS011;69248;42.138;24.742;2023-04-24T03:16:44;17.23;;;9.10;;
79759;SDS011;69248;42.138;24.742;2023-04-24T03:19:11;15.00;;;9.90;;
79759;SDS011;69248;42.138;24.742;2023-04-24T03:21:39;21.45;;;10.05;;
79759;SDS011;69248;42.138;24.742;2023-04-24T03:24:07;17.17;;;9.75;;
79759;SDS011;69248;42.138;24.742;2023-04-24T03:26:35;20.95;;;11.73;;
79759;SDS011;69248;42.138;24.742;2023-04-24T03:29:02;16.45;;;9.33;;
79759;SDS011;69248;42.138;24.742;2023-04-24T03:31:30;12.93;;;8.43;;
79759;SDS011;69248;42.138;24.742;2023-04-24T03:33:58;22.17;;;11.35;;
79759;SDS011;69248;42.138;24.742;2023-04-24T03:36:25;20.68;;;12.70;;
79759;SDS011;69248;42.138;24.742;2023-04-24T03:38:53;13.32;;;9.88;;
79759;SDS011;69248;42.138;24.742;2023-04-24T03:41:21;13.68;;;9.95;;
79759;SDS011;69248;42.138;24.742;2023-04-24T03:43:48;24.37;;;10.72;;
79759;SDS011;69248;42.138;24.742;2023-04-24T03:46:16;19.35;;;10.78;;
79759;SDS011;69248;42.138;24.742;2023-04-24T03:48:43;17.12;;;10.15;;
79759;SDS011;69248;42.138;24.742;2023-04-24T03:51:11;9.98;;;8.38;;
79759;SDS011;69248;42.138;24.742;2023-04-24T03:53:38;15.85;;;11.45;;
79759;SDS011;69248;42.138;24.742;2023-04-24T03:56:06;18.92;;;11.28;;
79759;SDS011;69248;42.138;24.742;2023-04-24T03:58:33;13.72;;;9.58;;
79759;SDS011;69248;42.138;24.742;2023-04-24T04:01:01;24.57;;;13.13;;
79759;SDS011;69248;42.138;24.742;2023-04-24T04:03:28;18.45;;;11.78;;
79759;SDS011;69248;42.138;24.742;2023-04-24T04:05:56;15.65;;;10.93;;
79759;SDS011;69248;42.138;24.742;2023-04-24T04:08:23;20.02;;;11.30;;
79759;SDS011;69248;42.138;24.742;2023-04-24T04:10:51;29.90;;;12.03;;
79759;SDS011;69248;42.138;24.742;2023-04-24T04:13:18;16.07;;;11.85;;
79759;SDS011;69248;42.138;24.742;2023-04-24T04:15:46;26.93;;;13.30;;
79759;SDS011;69248;42.138;24.742;2023-04-24T04:18:14;30.45;;;15.20;;
79759;SDS011;69248;42.138;24.742;2023-04-24T04:20:42;25.32;;;13.40;;
79759;SDS011;69248;42.138;24.742;2023-04-24T04:23:09;22.82;;;11.38;;
79759;SDS011;69248;42.138;24.742;2023-04-24T04:25:37;25.10;;;11.70;;
79759;SDS011;69248;42.138;24.742;2023-04-24T04:28:04;16.30;;;10.10;;
79759;SDS011;69248;42.138;24.742;2023-04-24T04:30:32;27.50;;;11.65;;
79759;SDS011;69248;42.138;24.742;2023-04-24T04:32:59;24.40;;;12.63;;
79759;SDS011;69248;42.138;24.742;2023-04-24T04:35:27;23.15;;;12.35;;
79759;SDS011;69248;42.138;24.742;2023-04-24T04:37:54;22.60;;;14.05;;
79759;SDS011;69248;42.138;24.742;2023-04-24T04:40:23;21.85;;;14.00;;
79759;SDS011;69248;42.138;24.742;2023-04-24T04:42:52;27.45;;;13.65;;
79759;SDS011;69248;42.138;24.742;2023-04-24T04:45:19;27.85;;;14.93;;
79759;SDS011;69248;42.138;24.742;2023-04-24T04:47:47;24.00;;;12.65;;
79759;SDS011;69248;42.138;24.742;2023-04-24T04:50:15;21.90;;;12.85;;
79759;SDS011;69248;42.138;24.742;2023-04-24T04:52:44;30.30;;;14.10;;
79759;SDS011;69248;42.138;24.742;2023-04-24T04:55:11;23.73;;;14.87;;
79759;SDS011;69248;42.138;24.742;2023-04-24T04:57:39;25.80;;;12.98;;
79759;SDS011;69248;42.138;24.742;2023-04-24T05:00:07;19.42;;;12.20;;
79759;SDS011;69248;42.138;24.742;2023-04-24T05:02:36;17.67;;;11.18;;
79759;SDS011;69248;42.138;24.742;2023-04-24T05:05:04;22.05;;;11.22;;
79759;SDS011;69248;42.138;24.742;2023-04-24T05:07:33;15.23;;;9.38;;
79759;SDS011;69248;42.138;24.742;2023-04-24T05:10:00;17.52;;;9.85;;
79759;SDS011;69248;42.138;24.742;2023-04-24T05:12:28;17.17;;;10.28;;
79759;SDS011;69248;42.138;24.742;2023-04-24T05:14:55;25.77;;;12.40;;
79759;SDS011;69248;42.138;24.742;2023-04-24T05:17:23;18.52;;;12.60;;
79759;SDS011;69248;42.138;24.742;2023-04-24T05:19:51;25.10;;;12.75;;
79759;SDS011;69248;42.138;24.742;2023-04-24T05:22:19;21.27;;;11.85;;
79759;SDS011;69248;42.138;24.742;2023-04-24T05:24:47;28.40;;;12.03;;
79759;SDS011;69248;42.138;24.742;2023-04-24T05:27:14;21.17;;;10.98;;
79759;SDS011;69248;42.138;24.742;2023-04-24T05:29:42;14.38;;;10.23;;
79759;SDS011;69248;42.138;24.742;2023-04-24T05:32:10;24.70;;;11.45;;
79759;SDS011;69248;42.138;24.742;2023-04-24T05:34:38;21.62;;;10.85;;
79759;SDS011;69248;42.138;24.742;2023-04-24T05:37:05;21.73;;;12.60;;
79759;SDS011;69248;42.138;24.742;2023-04-24T05:39:35;16.42;;;9.80;;
79759;SDS011;69248;42.138;24.742;2023-04-24T05:42:02;13.88;;;8.50;;
79759;SDS011;69248;42.138;24.742;2023-04-24T05:44:30;29.65;;;11.22;;
79759;SDS011;69248;42.138;24.742;2023-04-24T05:46:58;20.57;;;10.40;;
79759;SDS011;69248;42.138;24.742;2023-04-24T05:49:26;20.05;;;9.53;;
79759;SDS011;69248;42.138;24.742;2023-04-24T05:51:54;22.02;;;9.50;;
79759;SDS011;69248;42.138;24.742;2023-04-24T05:54:21;22.35;;;11.30;;
79759;SDS011;69248;42.138;24.742;2023-04-24T05:56:49;25.12;;;8.85;;
79759;SDS011;69248;42.138;24.742;2023-04-24T05:59:17;20.75;;;9.83;;
79759;SDS011;69248;42.138;24.742;2023-04-24T06:01:44;20.35;;;9.23;;
79759;SDS011;69248;42.138;24.742;2023-04-24T06:04:12;20.92;;;9.40;;
79759;SDS011;69248;42.138;24.742;2023-04-24T06:06:40;14.75;;;9.28;;
79759;SDS011;69248;42.138;24.742;2023-04-24T06:09:09;25.60;;;9.25;;
79759;SDS011;69248;42.138;24.742;2023-04-24T06:11:37;26.17;;;10.13;;
79759;SDS011;69248;42.138;24.742;2023-04-24T06:14:05;20.82;;;9.83;;
79759;SDS011;69248;42.138;24.742;2023-04-24T06:16:32;18.60;;;9.23;;
79759;SDS011;69248;42.138;24.742;2023-04-24T06:19:00;21.75;;;10.03;;
79759;SDS011;69248;42.138;24.742;2023-04-24T06:21:27;18.20;;;9.18;;
79759;SDS011;69248;42.138;24.742;2023-04-24T06:23:55;14.45;;;8.65;;
79759;SDS011;69248;42.138;24.742;2023-04-24T06:26:23;19.35;;;9.30;;
79759;SDS011;69248;42.138;24.742;2023-04-24T06:28:52;26.68;;;10.10;;
79759;SDS011;69248;42.138;24.742;2023-04-24T06:31:29;20.23;;;8.45;;
79759;SDS011;69248;42.138;24.742;2023-04-24T06:33:53;24.98;;;9.08;;
79759;SDS011;69248;42.138;24.742;2023-04-24T06:36:20;20.65;;;9.85;;
79759;SDS011;69248;42.138;24.742;2023-04-24T06:38:51;14.65;;;8.90;;
79759;SDS011;69248;42.138;24.742;2023-04-24T06:41:17;14.05;;;8.90;;
79759;SDS011;69248;42.138;24.742;2023-04-24T06:43:46;14.63;;;8.70;;
79759;SDS011;69248;42.138;24.742;2023-04-24T06:46:14;14.03;;;8.25;;
79759;SDS011;69248;42.138;24.742;2023-04-24T06:48:41;16.70;;;9.73;;
79759;SDS011;69248;42.138;24.742;2023-04-24T06:51:09;20.27;;;11.35;;
79759;SDS011;69248;42.138;24.742;2023-04-24T06:53:37;24.25;;;11.50;;
79759;SDS011;69248;42.138;24.742;2023-04-24T06:56:04;14.07;;;9.65;;
79759;SDS011;69248;42.138;24.742;2023-04-24T06:58:32;14.98;;;9.88;;
79759;SDS011;69248;42.138;24.742;2023-04-24T07:01:00;19.07;;;11.68;;
79759;SDS011;69248;42.138;24.742;2023-04-24T07:03:27;28.27;;;10.35;;
79759;SDS011;69248;42.138;24.742;2023-04-24T07:05:59;17.10;;;9.80;;
79759;SDS011;69248;42.138;24.742;2023-04-24T07:08:26;14.28;;;8.48;;
79759;SDS011;69248;42.138;24.742;2023-04-24T07:10:56;15.13;;;8.15;;
79759;SDS011;69248;42.138;24.742;2023-04-24T07:13:24;11.55;;;7.50;;
79759;SDS011;69248;42.138;24.742;2023-04-24T07:15:53;17.62;;;9.00;;
79759;SDS011;69248;42.138;24.742;2023-04-24T07:18:22;15.15;;;8.38;;
79759;SDS011;69248;42.138;24.742;2023-04-24T07:20:49;18.80;;;8.78;;
79759;SDS011;69248;42.138;24.742;2023-04-24T07:23:18;16.30;;;8.45;;
79759;SDS011;69248;42.138;24.742;2023-04-24T07:25:46;17.80;;;8.10;;
79759;SDS011;69248;42.138;24.742;2023-04-24T07:28:14;26.68;;;9.95;;
79759;SDS011;69248;42.138;24.742;2023-04-24T07:30:43;18.62;;;9.10;;
79759;SDS011;69248;42.138;24.742;2023-04-24T07:33:14;11.28;;;8.48;;
79759;SDS011;69248;42.138;24.742;2023-04-24T07:35:41;27.85;;;9.38;;
79759;SDS011;69248;42.138;24.742;2023-04-24T07:38:09;17.45;;;8.60;;
79759;SDS011;69248;42.138;24.742;2023-04-24T07:40:37;13.88;;;8.38;;
79759;SDS011;69248;42.138;24.742;2023-04-24T07:43:04;11.10;;;7.75;;
79759;SDS011;69248;42.138;24.742;2023-04-24T07:45:32;24.18;;;10.18;;
79759;SDS011;69248;42.138;24.742;2023-04-24T07:48:01;12.73;;;7.83;;
79759;SDS011;69248;42.138;24.742;2023-04-24T07:50:29;21.60;;;8.53;;
79759;SDS011;69248;42.138;24.742;2023-04-24T07:52:57;13.93;;;8.43;;
79759;SDS011;69248;42.138;24.742;2023-04-24T07:55:24;14.87;;;8.95;;
79759;SDS011;69248;42.138;24.742;2023-04-24T07:57:52;19.65;;;7.90;;
79759;SDS011;69248;42.138;24.742;2023-04-24T08:00:20;12.37;;;8.38;;
79759;SDS011;69248;42.138;24.742;2023-04-24T08:02:47;14.20;;;8.68;;
79759;SDS011;69248;42.138;24.742;2023-04-24T08:05:15;13.40;;;9.05;;
79759;SDS011;69248;42.138;24.742;2023-04-24T08:07:43;14.53;;;7.70;;
79759;SDS011;69248;42.138;24.742;2023-04-24T08:10:13;13.30;;;7.97;;
79759;SDS011;69248;42.138;24.742;2023-04-24T08:12:41;15.15;;;8.13;;
79759;SDS011;69248;42.138;24.742;2023-04-24T08:15:09;14.35;;;7.80;;
79759;SDS011;69248;42.138;24.742;2023-04-24T08:17:36;17.50;;;8.83;;
79759;SDS011;69248;42.138;24.742;2023-04-24T08:20:04;17.77;;;9.00;;
79759;SDS011;69248;42.138;24.742;2023-04-24T08:22:34;22.27;;;10.35;;
79759;SDS011;69248;42.138;24.742;2023-04-24T08:25:03;16.30;;;8.90;;
79759;SDS011;69248;42.138;24.742;2023-04-24T08:27:40;19.50;;;9.30;;
79759;SDS011;69248;42.138;24.742;2023-04-24T08:30:10;13.32;;;8.28;;
79759;SDS011;69248;42.138;24.742;2023-04-24T08:32:38;13.68;;;10.00;;
79759;SDS011;69248;42.138;24.742;2023-04-24T08:35:05;19.82;;;8.95;;
79759;SDS011;69248;42.138;24.742;2023-04-24T08:37:35;20.72;;;9.75;;
79759;SDS011;69248;42.138;24.742;2023-04-24T08:40:06;18.57;;;9.10;;
79759;SDS011;69248;42.138;24.742;2023-04-24T08:42:43;18.60;;;9.03;;
79759;SDS011;69248;42.138;24.742;2023-04-24T08:45:11;16.07;;;8.95;;
79759;SDS011;69248;42.138;24.742;2023-04-24T08:47:40;10.85;;;8.40;;
79759;SDS011;69248;42.138;24.742;2023-04-24T08:50:08;17.12;;;8.10;;
79759;SDS011;69248;42.138;24.742;2023-04-24T08:52:36;17.17;;;8.00;;
79759;SDS011;69248;42.138;24.742;2023-04-24T08:55:05;13.65;;;8.45;;
79759;SDS011;69248;42.138;24.742;2023-04-24T08:57:32;10.15;;;8.40;;
79759;SDS011;69248;42.138;24.742;2023-04-24T09:00:01;13.80;;;8.80;;
79759;SDS011;69248;42.138;24.742;2023-04-24T09:02:30;11.95;;;7.53;;
79759;SDS011;69248;42.138;24.742;2023-04-24T09:05:00;10.98;;;7.78;;
79759;SDS011;69248;42.138;24.742;2023-04-24T09:07:30;11.12;;;7.40;;
79759;SDS011;69248;42.138;24.742;2023-04-24T09:09:59;17.57;;;7.72;;
79759;SDS011;69248;42.138;24.742;2023-04-24T09:12:29;12.35;;;6.83;;
79759;SDS011;69248;42.138;24.742;2023-04-24T09:14:56;15.45;;;7.90;;
79759;SDS011;69248;42.138;24.742;2023-04-24T09:17:24;20.35;;;7.00;;
79759;SDS011;69248;42.138;24.742;2023-04-24T09:19:54;10.75;;;7.03;;
79759;SDS011;69248;42.138;24.742;2023-04-24T09:22:22;13.98;;;6.85;;
79759;SDS011;69248;42.138;24.742;2023-04-24T09:24:59;11.97;;;6.22;;
79759;SDS011;69248;42.138;24.742;2023-04-24T09:27:35;15.20;;;7.87;;
79759;SDS011;69248;42.138;24.742;2023-04-24T09:30:03;16.55;;;8.40;;
79759;SDS011;69248;42.138;24.742;2023-04-24T09:32:31;19.50;;;7.95;;
79759;SDS011;69248;42.138;24.742;2023-04-24T09:35:09;18.90;;;6.92;;
79759;SDS011;69248;42.138;24.742;2023-04-24T09:37:36;9.33;;;5.72;;
79759;SDS011;69248;42.138;24.742;2023-04-24T09:40:18;9.68;;;5.83;;
79759;SDS011;69248;42.138;24.742;2023-04-24T09:42:54;8.98;;;5.72;;
79759;SDS011;69248;42.138;24.742;2023-04-24T09:45:28;16.27;;;6.75;;
79759;SDS011;69248;42.138;24.742;2023-04-24T09:48:04;15.65;;;8.58;;
79759;SDS011;69248;42.138;24.742;2023-04-24T09:50:40;16.40;;;9.05;;
79759;SDS011;69248;42.138;24.742;2023-04-24T09:53:04;12.33;;;8.50;;
79759;SDS011;69248;42.138;24.742;2023-04-24T09:55:35;13.60;;;9.60;;
79759;SDS011;69248;42.138;24.742;2023-04-24T09:58:07;13.53;;;9.35;;
79759;SDS011;69248;42.138;24.742;2023-04-24T10:00:36;14.68;;;8.70;;
79759;SDS011;69248;42.138;24.742;2023-04-24T10:03:04;15.00;;;8.83;;
79759;SDS011;69248;42.138;24.742;2023-04-24T10:05:34;11.57;;;6.80;;
79759;SDS011;69248;42.138;24.742;2023-04-24T10:08:03;12.70;;;6.60;;
79759;SDS011;69248;42.138;24.742;2023-04-24T10:10:33;8.88;;;6.20;;
79759;SDS011;69248;42.138;24.742;2023-04-24T10:13:03;14.85;;;10.00;;
79759;SDS011;69248;42.138;24.742;2023-04-24T10:15:32;17.45;;;9.18;;
79759;SDS011;69248;42.138;24.742;2023-04-24T10:18:01;9.85;;;8.03;;
79759;SDS011;69248;42.138;24.742;2023-04-24T10:20:32;11.70;;;7.30;;
79759;SDS011;69248;42.138;24.742;2023-04-24T10:23:02;8.43;;;7.53;;
79759;SDS011;69248;42.138;24.742;2023-04-24T10:25:31;16.60;;;8.33;;
79759;SDS011;69248;42.138;24.742;2023-04-24T10:28:00;15.13;;;8.00;;
79759;SDS011;69248;42.138;24.742;2023-04-24T10:30:31;13.30;;;7.80;;
79759;SDS011;69248;42.138;24.742;2023-04-24T10:33:04;12.03;;;7.15;;
79759;SDS011;69248;42.138;24.742;2023-04-24T10:35:34;9.40;;;5.72;;
79759;SDS011;69248;42.138;24.742;2023-04-24T10:38:14;12.60;;;5.47;;
79759;SDS011;69248;42.138;24.742;2023-04-24T10:40:49;9.35;;;6.60;;
79759;SDS011;69248;42.138;24.742;2023-04-24T10:43:15;9.60;;;6.10;;
79759;SDS011;69248;42.138;24.742;2023-04-24T10:45:59;12.93;;;6.47;;
79759;SDS011;69248;42.138;24.742;2023-04-24T10:48:32;15.63;;;5.62;;
79759;SDS011;69248;42.138;24.742;2023-04-24T10:50:59;12.75;;;6.10;;
79759;SDS011;69248;42.138;24.742;2023-04-24T10:53:28;11.95;;;5.72;;
79759;SDS011;69248;42.138;24.742;2023-04-24T10:56:02;9.48;;;4.83;;
79759;SDS011;69248;42.138;24.742;2023-04-24T10:58:43;13.03;;;7.10;;
79759;SDS011;69248;42.138;24.742;2023-04-24T11:01:29;11.03;;;6.20;;
79759;SDS011;69248;42.138;24.742;2023-04-24T11:04:01;15.83;;;7.80;;
79759;SDS011;69248;42.138;24.742;2023-04-24T11:06:33;9.98;;;6.22;;
79759;SDS011;69248;42.138;24.742;2023-04-24T11:09:02;12.88;;;6.03;;
79759;SDS011;69248;42.138;24.742;2023-04-24T11:11:35;8.63;;;5.90;;
79759;SDS011;69248;42.138;24.742;2023-04-24T11:14:04;8.13;;;5.20;;
79759;SDS011;69248;42.138;24.742;2023-04-24T11:16:37;10.30;;;5.92;;
79759;SDS011;69248;42.138;24.742;2023-04-24T11:21:48;8.50;;;5.67;;
79759;SDS011;69248;42.138;24.742;2023-04-24T11:27:07;10.13;;;5.22;;
79759;SDS011;69248;42.138;24.742;2023-04-24T11:37:45;9.55;;;5.03;;
79759;SDS011;69248;42.138;24.742;2023-04-24T11:40:17;14.28;;;5.53;;
79759;SDS011;69248;42.138;24.742;2023-04-24T11:42:47;12.28;;;5.28;;
79759;SDS011;69248;42.138;24.742;2023-04-24T11:45:20;9.20;;;5.47;;
79759;SDS011;69248;42.138;24.742;2023-04-24T11:47:46;12.23;;;5.17;;
79759;SDS011;69248;42.138;24.742;2023-04-24T11:50:14;10.32;;;5.30;;
79759;SDS011;69248;42.138;24.742;2023-04-24T11:52:44;12.73;;;7.00;;
79759;SDS011;69248;42.138;24.742;2023-04-24T11:57:55;12.98;;;5.37;;
79759;SDS011;69248;42.138;24.742;2023-04-24T12:00:24;12.82;;;5.08;;
79759;SDS011;69248;42.138;24.742;2023-04-24T12:03:03;8.13;;;5.37;;
79759;SDS011;69248;42.138;24.742;2023-04-24T12:05:32;10.32;;;4.65;;
79759;SDS011;69248;42.138;24.742;2023-04-24T12:08:00;16.17;;;5.55;;
79759;SDS011;69248;42.138;24.742;2023-04-24T12:10:28;11.78;;;4.72;;
79759;SDS011;69248;42.138;24.742;2023-04-24T12:12:58;15.13;;;5.42;;
79759;SDS011;69248;42.138;24.742;2023-04-24T12:15:26;10.72;;;4.65;;
79759;SDS011;69248;42.138;24.742;2023-04-24T12:17:54;7.90;;;4.35;;
79759;SDS011;69248;42.138;24.742;2023-04-24T12:22:56;9.50;;;4.65;;
79759;SDS011;69248;42.138;24.742;2023-04-24T12:25:30;10.65;;;4.50;;
79759;SDS011;69248;42.138;24.742;2023-04-24T12:30:42;12.10;;;5.12;;
79759;SDS011;69248;42.138;24.742;2023-04-24T12:33:20;5.25;;;4.35;;
79759;SDS011;69248;42.138;24.742;2023-04-24T12:35:48;11.63;;;4.87;;
79759;SDS011;69248;42.138;24.742;2023-04-24T12:38:22;8.10;;;4.87;;
79759;SDS011;69248;42.138;24.742;2023-04-24T12:41:04;5.97;;;4.03;;
79759;SDS011;69248;42.138;24.742;2023-04-24T12:43:33;6.08;;;3.80;;
79759;SDS011;69248;42.138;24.742;2023-04-24T12:46:01;8.28;;;4.20;;
79759;SDS011;69248;42.138;24.742;2023-04-24T12:48:29;8.53;;;3.67;;
79759;SDS011;69248;42.138;24.742;2023-04-24T12:50:58;12.68;;;3.85;;
79759;SDS011;69248;42.138;24.742;2023-04-24T12:53:29;9.60;;;4.05;;
79759;SDS011;69248;42.138;24.742;2023-04-24T12:55:56;8.73;;;3.95;;
79759;SDS011;69248;42.138;24.742;2023-04-24T12:58:25;6.33;;;4.22;;
79759;SDS011;69248;42.138;24.742;2023-04-24T13:00:53;7.92;;;4.08;;
79759;SDS011;69248;42.138;24.742;2023-04-24T13:03:20;18.15;;;4.12;;
79759;SDS011;69248;42.138;24.742;2023-04-24T13:05:48;13.53;;;5.78;;
79759;SDS011;69248;42.138;24.742;2023-04-24T13:08:15;10.38;;;4.75;;
79759;SDS011;69248;42.138;24.742;2023-04-24T13:10:43;8.38;;;3.98;;
79759;SDS011;69248;42.138;24.742;2023-04-24T13:13:11;6.40;;;3.92;;
79759;SDS011;69248;42.138;24.742;2023-04-24T13:15:38;11.25;;;4.58;;
79759;SDS011;69248;42.138;24.742;2023-04-24T13:18:06;9.35;;;4.17;;
79759;SDS011;69248;42.138;24.742;2023-04-24T13:20:33;7.25;;;4.12;;
79759;SDS011;69248;42.138;24.742;2023-04-24T13:23:01;10.28;;;5.30;;
79759;SDS011;69248;42.138;24.742;2023-04-24T13:25:30;7.78;;;4.62;;
79759;SDS011;69248;42.138;24.742;2023-04-24T13:27:59;6.28;;;3.90;;
79759;SDS011;69248;42.138;24.742;2023-04-24T13:30:26;5.50;;;3.60;;
79759;SDS011;69248;42.138;24.742;2023-04-24T13:32:54;5.50;;;3.35;;
79759;SDS011;69248;42.138;24.742;2023-04-24T13:35:23;19.07;;;5.55;;
79759;SDS011;69248;42.138;24.742;2023-04-24T13:37:50;12.20;;;5.10;;
79759;SDS011;69248;42.138;24.742;2023-04-24T13:40:18;6.87;;;3.95;;
79759;SDS011;69248;42.138;24.742;2023-04-24T13:42:45;8.63;;;3.90;;
79759;SDS011;69248;42.138;24.742;2023-04-24T13:45:13;6.20;;;3.50;;
79759;SDS011;69248;42.138;24.742;2023-04-24T13:47:41;7.97;;;3.72;;
79759;SDS011;69248;42.138;24.742;2023-04-24T13:50:08;7.25;;;3.62;;
79759;SDS011;69248;42.138;24.742;2023-04-24T13:52:36;7.65;;;3.58;;
79759;SDS011;69248;42.138;24.742;2023-04-24T13:55:04;5.78;;;3.70;;
79759;SDS011;69248;42.138;24.742;2023-04-24T13:57:32;6.72;;;3.72;;
79759;SDS011;69248;42.138;24.742;2023-04-24T14:00:00;9.63;;;4.05;;
79759;SDS011;69248;42.138;24.742;2023-04-24T14:02:29;5.40;;;3.47;;
79759;SDS011;69248;42.138;24.742;2023-04-24T14:04:57;7.03;;;3.40;;
79759;SDS011;69248;42.138;24.742;2023-04-24T14:07:24;8.85;;;4.33;;
79759;SDS011;69248;42.138;24.742;2023-04-24T14:09:52;6.78;;;3.87;;
79759;SDS011;69248;42.138;24.742;2023-04-24T14:12:20;6.47;;;3.50;;
79759;SDS011;69248;42.138;24.742;2023-04-24T14:14:47;8.35;;;3.92;;
79759;SDS011;69248;42.138;24.742;2023-04-24T14:17:15;10.80;;;3.87;;
79759;SDS011;69248;42.138;24.742;2023-04-24T14:19:43;9.65;;;3.70;;
79759;SDS011;69248;42.138;24.742;2023-04-24T14:22:10;14.05;;;4.78;;
79759;SDS011;69248;42.138;24.742;2023-04-24T14:24:38;9.10;;;3.80;;
79759;SDS011;69248;42.138;24.742;2023-04-24T14:27:05;4.62;;;3.85;;
79759;SDS011;69248;42.138;24.742;2023-04-24T14:29:33;3.98;;;3.10;;
79759;SDS011;69248;42.138;24.742;2023-04-24T14:32:00;12.28;;;3.77;;
79759;SDS011;69248;42.138;24.742;2023-04-24T14:34:28;7.60;;;4.10;;
79759;SDS011;69248;42.138;24.742;2023-04-24T14:36:56;24.05;;;5.25;;
79759;SDS011;69248;42.138;24.742;2023-04-24T14:39:24;6.67;;;3.98;;
79759;SDS011;69248;42.138;24.742;2023-04-24T14:41:52;5.40;;;3.27;;
79759;SDS011;69248;42.138;24.742;2023-04-24T14:44:19;6.95;;;3.30;;
79759;SDS011;69248;42.138;24.742;2023-04-24T14:46:48;6.17;;;4.28;;
79759;SDS011;69248;42.138;24.742;2023-04-24T14:49:15;10.80;;;3.75;;
79759;SDS011;69248;42.138;24.742;2023-04-24T14:51:43;6.05;;;3.00;;